Time;durP1;ratioP1;P1;durP2;ratioP2;P2;SDS_P1;SDS_P2;PMS_P1;PMS_P2;Temp;Humidity;BMP_temperature;BMP_pressure;BME280_temperature;BME280_humidity;BME280_pressure;Samples;Min_cycle;Max_cycle;Signal;HPM_P1;HPM_P2
2023/10/22 00:00:00;;;;;;;11.43;3.25;;;8.20;99.90;;;;;;5123991;27;20036;-87
2023/10/22 00:02:26;;;;;;;10.60;2.88;;;8.10;99.90;;;;;;5078391;28;20032;-87
2023/10/22 00:04:52;;;;;;;3.70;2.13;;;8.10;99.90;;;;;;5096515;28;20031;-87
2023/10/22 00:07:18;;;;;;;9.55;2.65;;;8.00;99.90;;;;;;5064856;28;20107;-87
2023/10/22 00:09:43;;;;;;;4.53;2.10;;;7.90;99.90;;;;;;5070606;28;20047;-87
2023/10/22 00:12:11;;;;;;;3.33;1.83;;;7.90;99.90;;;;;;5101030;28;20020;-87
2023/10/22 00:14:37;;;;;;;4.40;2.00;;;7.90;99.90;;;;;;5084079;28;20027;-87
2023/10/22 00:17:03;;;;;;;4.88;1.88;;;7.90;99.90;;;;;;5099964;28;20390;-87
2023/10/22 00:19:44;;;;;;;6.80;2.42;;;7.80;99.90;;;;;;5090927;28;20020;-87
2023/10/22 00:22:12;;;;;;;3.97;1.98;;;7.80;99.90;;;;;;5082201;28;20168;-87
2023/10/22 00:24:38;;;;;;;5.03;1.90;;;7.90;99.90;;;;;;5080742;28;20020;-87
2023/10/22 00:27:04;;;;;;;5.88;1.80;;;8.00;99.90;;;;;;5084894;28;20089;-87
2023/10/22 00:29:30;;;;;;;5.47;2.13;;;8.00;99.90;;;;;;5081473;28;20027;-87
2023/10/22 00:31:56;;;;;;;6.53;2.65;;;8.10;99.90;;;;;;5068895;28;20091;-87
2023/10/22 00:34:21;;;;;;;7.25;2.90;;;8.00;99.90;;;;;;5118160;27;20062;-87
2023/10/22 00:36:47;;;;;;;10.52;2.95;;;8.10;99.90;;;;;;5069260;28;20032;-87
2023/10/22 00:39:13;;;;;;;11.70;2.67;;;8.20;99.90;;;;;;5069422;28;20035;-87
2023/10/22 00:41:38;;;;;;;6.15;1.92;;;8.40;99.90;;;;;;5062753;28;20035;-87
2023/10/22 00:44:04;;;;;;;4.38;1.73;;;8.40;99.90;;;;;;5089130;28;20035;-87
2023/10/22 00:46:30;;;;;;;7.90;2.40;;;8.50;99.90;;;;;;5080373;28;20027;-87
2023/10/22 00:48:56;;;;;;;3.58;1.85;;;8.40;99.90;;;;;;5066802;28;20024;-87
2023/10/22 00:51:23;;;;;;;8.60;2.00;;;8.30;99.90;;;;;;5094583;28;20028;-87
2023/10/22 00:53:49;;;;;;;8.13;1.70;;;8.30;99.90;;;;;;5083016;28;20021;-87
2023/10/22 00:56:16;;;;;;;6.18;1.85;;;8.20;99.90;;;;;;5082600;28;20028;-87
2023/10/22 00:58:42;;;;;;;7.07;1.63;;;8.30;99.90;;;;;;5099149;28;20748;-87
2023/10/22 01:01:09;;;;;;;6.22;1.50;;;8.40;99.90;;;;;;5104169;28;20028;-88
2023/10/22 01:03:36;;;;;;;5.93;2.38;;;8.50;99.90;;;;;;5095730;28;20077;-87
2023/10/22 01:06:06;;;;;;;6.30;1.55;;;8.50;99.90;;;;;;5088179;28;20035;-88
2023/10/22 01:12:22;;;;;;;8.38;1.73;;;8.50;99.90;;;;;;5095329;28;20123;-87
2023/10/22 01:14:48;;;;;;;7.15;1.55;;;8.40;99.90;;;;;;5100134;28;20394;-87
2023/10/22 01:17:13;;;;;;;6.65;1.90;;;8.30;99.90;;;;;;5099099;28;20091;-88
2023/10/22 01:19:39;;;;;;;8.98;2.55;;;8.20;99.90;;;;;;5078484;28;20036;-87
2023/10/22 01:22:05;;;;;;;20.38;6.28;;;8.10;99.90;;;;;;5074806;28;20075;-87
2023/10/22 01:24:34;;;;;;;27.88;7.95;;;8.00;99.90;;;;;;5093007;28;20048;-87
2023/10/22 01:26:59;;;;;;;22.83;8.60;;;7.80;99.90;;;;;;5105333;28;20028;-87
2023/10/22 01:29:26;;;;;;;17.77;6.45;;;7.70;99.90;;;;;;5118066;27;20498;-87
2023/10/22 01:31:52;;;;;;;10.00;2.97;;;7.60;99.90;;;;;;5111087;28;20024;-87
2023/10/22 01:34:17;;;;;;;7.68;2.90;;;7.60;99.90;;;;;;5119733;27;20051;-87
2023/10/22 01:36:45;;;;;;;5.43;1.92;;;7.60;99.90;;;;;;5082700;28;20024;-87
2023/10/22 01:39:14;;;;;;;9.43;2.65;;;7.60;99.90;;;;;;5082624;28;20550;-87
2023/10/22 01:41:41;;;;;;;6.22;2.22;;;7.50;99.90;;;;;;5092918;28;20032;-87
2023/10/22 01:44:07;;;;;;;10.68;2.17;;;7.50;99.90;;;;;;5085051;28;20031;-87
2023/10/22 01:46:33;;;;;;;8.38;2.38;;;7.50;99.90;;;;;;5060798;28;20016;-87
2023/10/22 01:48:59;;;;;;;9.05;2.30;;;7.50;99.90;;;;;;5100915;28;20111;-87
2023/10/22 01:51:24;;;;;;;5.63;2.10;;;7.40;99.90;;;;;;5112016;27;20124;-87
2023/10/22 01:53:50;;;;;;;6.63;2.08;;;7.40;99.90;;;;;;5081563;28;20016;-87
2023/10/22 01:56:16;;;;;;;6.72;2.67;;;7.30;99.90;;;;;;5105809;28;20038;-87
2023/10/22 01:58:47;;;;;;;11.75;2.58;;;7.30;99.90;;;;;;5084272;28;20099;-88
2023/10/22 02:01:30;;;;;;;8.48;2.20;;;7.30;99.90;;;;;;5081051;28;20097;-87
2023/10/22 02:03:57;;;;;;;5.43;2.00;;;7.30;99.90;;;;;;5094105;28;20065;-87
2023/10/22 02:06:24;;;;;;;8.10;2.25;;;7.40;99.90;;;;;;5103733;28;20426;-87
2023/10/22 02:08:49;;;;;;;8.25;2.00;;;7.40;99.90;;;;;;5077285;28;20028;-87
2023/10/22 02:11:15;;;;;;;5.15;2.30;;;7.30;99.90;;;;;;5083965;28;20352;-87
2023/10/22 02:13:41;;;;;;;8.82;2.35;;;7.30;99.90;;;;;;5080059;28;20028;-87
2023/10/22 02:16:06;;;;;;;11.30;2.47;;;7.30;99.90;;;;;;5102054;28;20043;-87
2023/10/22 02:18:34;;;;;;;10.82;2.67;;;7.10;99.90;;;;;;5098049;28;20024;-87
2023/10/22 02:21:00;;;;;;;9.63;2.17;;;7.10;99.90;;;;;;5078105;28;20114;-87
2023/10/22 02:23:35;;;;;;;7.63;2.65;;;7.10;99.90;;;;;;5074387;28;20028;-87
2023/10/22 02:26:01;;;;;;;10.18;2.35;;;7.30;99.90;;;;;;5081481;28;20059;-88
2023/10/22 02:28:26;;;;;;;5.68;2.35;;;7.30;99.90;;;;;;5112277;27;20114;-87
2023/10/22 02:30:52;;;;;;;4.95;2.25;;;7.20;99.90;;;;;;5082780;28;20084;-87
2023/10/22 02:33:18;;;;;;;6.97;2.95;;;7.30;99.90;;;;;;5081090;28;20035;-87
2023/10/22 02:35:45;;;;;;;5.82;2.03;;;7.30;99.90;;;;;;5101690;28;20059;-87
2023/10/22 02:38:15;;;;;;;6.05;2.33;;;7.50;99.90;;;;;;5080189;28;20478;-87
2023/10/22 02:40:42;;;;;;;4.28;1.70;;;7.60;99.90;;;;;;5084685;28;20070;-87
2023/10/22 02:43:10;;;;;;;14.27;6.13;;;7.70;99.90;;;;;;5081208;28;20032;-87
2023/10/22 02:45:36;;;;;;;7.15;3.70;;;7.70;99.90;;;;;;5079186;28;20088;-88
2023/10/22 02:48:01;;;;;;;5.78;2.50;;;7.70;99.90;;;;;;5082249;28;20020;-87
2023/10/22 02:50:27;;;;;;;7.60;2.20;;;7.80;99.90;;;;;;5081337;28;20031;-87
2023/10/22 02:52:54;;;;;;;7.30;4.15;;;7.70;99.90;;;;;;5083991;28;20102;-87
2023/10/22 02:55:20;;;;;;;7.00;3.00;;;7.70;99.90;;;;;;5118916;27;20474;-87
2023/10/22 02:57:46;;;;;;;4.43;2.22;;;7.70;99.90;;;;;;5090630;28;20115;-87
2023/10/22 03:00:13;;;;;;;8.15;2.00;;;7.80;99.90;;;;;;5086004;28;20042;-87
2023/10/22 03:02:40;;;;;;;4.47;2.30;;;7.80;99.90;;;;;;5077733;28;20039;-87
2023/10/22 03:05:06;;;;;;;9.30;2.58;;;7.70;99.90;;;;;;5080121;28;20391;-87
2023/10/22 03:07:33;;;;;;;8.18;3.20;;;7.70;99.90;;;;;;5078757;28;20035;-87
2023/10/22 03:09:59;;;;;;;7.15;3.45;;;7.70;99.90;;;;;;5107041;28;20028;-87
2023/10/22 03:12:25;;;;;;;4.95;2.50;;;7.70;99.90;;;;;;5078386;28;20032;-87
2023/10/22 03:14:52;;;;;;;6.80;3.20;;;7.80;99.90;;;;;;5084063;28;20043;-87
2023/10/22 03:17:18;;;;;;;7.18;3.28;;;7.70;99.90;;;;;;5080726;28;20024;-87
2023/10/22 03:19:44;;;;;;;9.65;2.78;;;7.80;99.90;;;;;;5078102;28;20070;-87
2023/10/22 03:22:10;;;;;;;8.57;2.55;;;7.80;99.90;;;;;;5077593;28;20487;-87
2023/10/22 03:24:36;;;;;;;6.35;1.80;;;7.80;99.90;;;;;;5063749;28;20031;-87
2023/10/22 03:27:04;;;;;;;4.32;1.80;;;7.70;99.90;;;;;;5083248;28;20043;-87
2023/10/22 03:29:32;;;;;;;10.35;2.35;;;7.70;99.90;;;;;;5066714;28;20035;-86
2023/10/22 03:31:58;;;;;;;11.05;2.67;;;7.80;99.90;;;;;;5075791;28;20032;-87
2023/10/22 03:34:24;;;;;;;12.02;2.80;;;7.70;99.90;;;;;;5120001;27;20036;-87
2023/10/22 03:36:50;;;;;;;13.98;2.47;;;7.70;99.90;;;;;;5115544;27;20386;-87
2023/10/22 03:39:17;;;;;;;5.47;2.20;;;7.70;99.90;;;;;;5107761;28;20036;-87
2023/10/22 03:41:44;;;;;;;4.68;1.67;;;7.70;99.90;;;;;;5083930;28;20059;-88
2023/10/22 03:44:16;;;;;;;7.85;2.60;;;7.80;99.90;;;;;;5068549;28;20028;-87
2023/10/22 03:46:42;;;;;;;9.90;2.78;;;7.80;99.90;;;;;;5101958;28;20021;-88
2023/10/22 03:49:08;;;;;;;4.30;1.95;;;7.70;99.90;;;;;;5107874;28;20136;-87
2023/10/22 03:51:34;;;;;;;7.22;1.90;;;7.70;99.90;;;;;;5093154;28;20125;-87
2023/10/22 03:54:00;;;;;;;5.00;2.15;;;7.70;99.90;;;;;;5107171;28;20024;-87
2023/10/22 03:56:26;;;;;;;6.53;2.10;;;7.80;99.90;;;;;;5133498;27;20024;-86
2023/10/22 03:58:52;;;;;;;6.47;2.33;;;7.70;99.90;;;;;;5089895;28;20375;-87
2023/10/22 04:01:17;;;;;;;8.63;4.35;;;7.80;99.90;;;;;;5105521;28;20048;-87
2023/10/22 04:03:43;;;;;;;8.32;2.53;;;7.70;99.90;;;;;;5085569;28;20032;-87
2023/10/22 04:06:09;;;;;;;11.05;2.40;;;7.80;99.90;;;;;;5081424;28;20466;-87
2023/10/22 04:08:34;;;;;;;8.60;2.22;;;7.80;99.90;;;;;;5070908;28;20791;-86
2023/10/22 04:11:01;;;;;;;13.63;2.28;;;7.90;99.90;;;;;;5115782;27;20020;-87
2023/10/22 04:13:27;;;;;;;13.18;2.53;;;7.80;99.90;;;;;;5082209;28;20394;-87
2023/10/22 04:15:53;;;;;;;11.30;2.92;;;7.80;99.90;;;;;;5083829;28;20028;-87
2023/10/22 04:18:19;;;;;;;9.55;2.00;;;7.70;99.90;;;;;;5083998;28;20478;-87
2023/10/22 04:20:45;;;;;;;11.63;2.35;;;7.70;99.90;;;;;;5100525;28;20441;-87
2023/10/22 04:23:11;;;;;;;7.43;2.25;;;7.70;99.90;;;;;;5062611;28;20037;-87
2023/10/22 04:26:12;;;;;;;4.43;2.33;;;7.70;99.90;;;;;;5080759;28;20097;-87
2023/10/22 04:28:37;;;;;;;7.18;2.13;;;7.80;99.90;;;;;;5055937;28;20036;-87
2023/10/22 04:31:03;;;;;;;8.85;2.50;;;7.70;99.90;;;;;;5065213;28;20023;-86
2023/10/22 04:33:29;;;;;;;4.80;1.70;;;7.80;99.90;;;;;;5106380;28;20040;-87
2023/10/22 04:35:54;;;;;;;13.15;2.20;;;7.70;99.90;;;;;;5103842;28;20044;-86
2023/10/22 04:38:20;;;;;;;3.72;1.67;;;7.80;99.90;;;;;;5104626;28;20694;-86
2023/10/22 04:40:46;;;;;;;10.13;1.80;;;7.90;99.90;;;;;;5064741;28;20051;-86
2023/10/22 04:43:48;;;;;;;7.72;2.53;;;8.00;99.90;;;;;;5083690;28;20644;-87
2023/10/22 04:46:13;;;;;;;6.68;2.17;;;8.10;99.90;;;;;;5076818;28;20506;-87
2023/10/22 04:48:39;;;;;;;8.27;2.05;;;8.10;99.90;;;;;;5079037;28;20058;-87
2023/10/22 04:51:06;;;;;;;8.13;4.07;;;8.10;99.90;;;;;;5100224;28;20069;-87
2023/10/22 04:53:35;;;;;;;7.22;1.80;;;8.20;99.90;;;;;;5081398;28;20031;-87
2023/10/22 04:56:01;;;;;;;5.25;1.60;;;8.30;99.90;;;;;;5117928;28;20505;-87
2023/10/22 04:58:27;;;;;;;5.95;1.90;;;8.30;99.90;;;;;;5083384;28;20058;-88
2023/10/22 05:00:55;;;;;;;5.40;1.35;;;8.30;99.90;;;;;;5060227;28;20024;-86
2023/10/22 05:03:42;;;;;;;12.10;1.63;;;8.30;99.90;;;;;;5085891;28;20031;-87
2023/10/22 05:06:08;;;;;;;7.07;1.45;;;8.30;99.90;;;;;;5091890;28;20028;-87
2023/10/22 05:08:35;;;;;;;9.77;2.00;;;8.20;99.90;;;;;;5061770;28;20047;-87
2023/10/22 05:11:05;;;;;;;9.27;1.58;;;8.20;99.90;;;;;;5097778;28;20031;-87
2023/10/22 05:13:32;;;;;;;10.32;2.55;;;8.20;99.90;;;;;;5063422;28;20035;-87
2023/10/22 05:15:57;;;;;;;6.28;1.60;;;8.20;99.90;;;;;;5124556;28;20032;-87
2023/10/22 05:18:26;;;;;;;10.65;1.55;;;8.20;99.90;;;;;;5082879;28;20509;-87
2023/10/22 05:20:52;;;;;;;7.25;1.80;;;8.10;99.90;;;;;;5081146;28;20028;-87
2023/10/22 05:23:18;;;;;;;12.52;2.78;;;8.10;99.90;;;;;;5071439;28;20494;-86
2023/10/22 05:25:44;;;;;;;5.82;1.75;;;8.10;99.90;;;;;;5092676;28;20040;-87
2023/10/22 05:28:09;;;;;;;9.98;1.55;;;8.00;99.90;;;;;;5104414;28;20123;-87
2023/10/22 05:30:35;;;;;;;7.93;1.52;;;8.10;99.90;;;;;;5071895;28;20039;-86
2023/10/22 05:33:01;;;;;;;4.18;1.60;;;8.20;99.90;;;;;;5087020;28;20103;-86
2023/10/22 05:35:27;;;;;;;9.18;1.88;;;8.20;99.90;;;;;;5053846;28;1086610;-86
2023/10/22 05:37:53;;;;;;;9.65;2.38;;;8.30;99.90;;;;;;5075413;28;20036;-86
2023/10/22 05:40:19;;;;;;;4.88;1.80;;;8.30;99.90;;;;;;5109206;27;20024;-87
2023/10/22 05:42:44;;;;;;;10.30;2.30;;;8.30;99.90;;;;;;5070675;28;20024;-86
2023/10/22 05:45:10;;;;;;;12.40;1.80;;;8.30;99.90;;;;;;5077092;28;20056;-86
2023/10/22 05:47:48;;;;;;;22.48;3.17;;;8.30;99.90;;;;;;5076705;28;20020;-88
2023/10/22 05:50:14;;;;;;;6.53;1.88;;;8.30;99.90;;;;;;5066845;28;20035;-89
2023/10/22 05:52:40;;;;;;;10.68;1.55;;;8.30;99.90;;;;;;5106015;28;20024;-87
2023/10/22 05:55:07;;;;;;;6.50;1.60;;;8.30;99.90;;;;;;5081964;28;20031;-88
2023/10/22 05:57:32;;;;;;;2.95;1.25;;;8.40;99.90;;;;;;5093360;28;20051;-86
2023/10/22 05:59:58;;;;;;;8.77;1.80;;;8.40;99.90;;;;;;5072595;28;20101;-86
2023/10/22 06:02:24;;;;;;;9.60;1.90;;;8.40;99.90;;;;;;5095620;28;20794;-85
2023/10/22 06:04:50;;;;;;;10.32;1.65;;;8.40;99.90;;;;;;5076532;28;20032;-86
2023/10/22 06:07:16;;;;;;;10.32;1.70;;;8.40;99.90;;;;;;5110305;27;20027;-86
2023/10/22 06:09:41;;;;;;;8.05;1.55;;;8.40;99.90;;;;;;5073706;28;20580;-86
2023/10/22 06:12:08;;;;;;;8.15;1.83;;;8.60;99.90;;;;;;5075439;28;20494;-86
2023/10/22 06:14:35;;;;;;;14.13;1.77;;;8.60;99.90;;;;;;5076876;28;20024;-85
2023/10/22 06:17:01;;;;;;;9.05;1.55;;;8.70;99.90;;;;;;5091905;28;20020;-86
2023/10/22 06:19:27;;;;;;;4.60;1.35;;;8.80;99.90;;;;;;5074870;28;20032;-86
2023/10/22 06:21:52;;;;;;;10.82;1.50;;;8.90;99.90;;;;;;5100413;28;20107;-85
2023/10/22 06:24:18;;;;;;;7.82;3.13;;;9.00;99.90;;;;;;5101175;27;20071;-86
2023/10/22 06:26:44;;;;;;;11.80;4.13;;;9.00;99.90;;;;;;5098502;28;20024;-85
2023/10/22 06:29:10;;;;;;;10.07;2.08;;;9.10;99.90;;;;;;5077900;28;20027;-85
2023/10/22 06:31:35;;;;;;;7.30;2.10;;;9.10;99.90;;;;;;5097462;28;20024;-86
2023/10/22 06:34:01;;;;;;;5.65;2.50;;;9.10;99.90;;;;;;5063733;28;20135;-85
2023/10/22 06:36:27;;;;;;;9.77;2.53;;;9.20;99.90;;;;;;5061312;28;20395;-86
2023/10/22 06:38:52;;;;;;;15.60;2.15;;;9.10;99.90;;;;;;5103968;28;20478;-86
2023/10/22 06:41:21;;;;;;;7.05;1.88;;;9.10;99.90;;;;;;5082516;28;20028;-86
2023/10/22 06:43:47;;;;;;;8.32;1.70;;;9.10;99.90;;;;;;5074738;28;20017;-86
2023/10/22 06:46:41;;;;;;;9.57;1.70;;;9.10;99.90;;;;;;5075518;28;20047;-86
2023/10/22 06:49:07;;;;;;;16.10;1.85;;;9.20;99.90;;;;;;5104210;28;20050;-86
2023/10/22 06:51:33;;;;;;;13.32;1.70;;;9.20;99.90;;;;;;5106241;28;20491;-86
2023/10/22 06:53:58;;;;;;;6.43;1.80;;;9.20;99.90;;;;;;5066335;28;20107;-85
2023/10/22 06:56:24;;;;;;;9.60;1.90;;;9.20;99.90;;;;;;5064716;28;20031;-85
2023/10/22 06:58:50;;;;;;;11.60;3.30;;;9.20;99.90;;;;;;5082650;28;20068;-85
2023/10/22 07:01:15;;;;;;;14.00;3.47;;;9.30;99.90;;;;;;5075418;28;20506;-86
2023/10/22 07:03:43;;;;;;;14.88;2.70;;;9.30;99.90;;;;;;5085967;28;20028;-86
2023/10/22 07:06:15;;;;;;;8.82;3.15;;;9.30;99.90;;;;;;5092817;28;20039;-86
2023/10/22 07:08:43;;;;;;;8.98;2.65;;;9.40;99.90;;;;;;5101709;28;20039;-86
2023/10/22 07:11:08;;;;;;;17.02;3.05;;;9.50;99.90;;;;;;5073401;28;20104;-86
2023/10/22 07:13:34;;;;;;;11.73;2.50;;;9.60;99.90;;;;;;5059255;28;20077;-86
2023/10/22 07:16:00;;;;;;;14.27;2.20;;;9.70;99.90;;;;;;5100934;28;20255;-85
2023/10/22 07:18:25;;;;;;;15.35;3.35;;;9.90;99.90;;;;;;5104299;28;20047;-86
2023/10/22 07:20:51;;;;;;;17.63;3.15;;;10.00;99.90;;;;;;5066494;28;20038;-86
2023/10/22 07:23:32;;;;;;;13.98;1.85;;;10.00;99.90;;;;;;5079241;28;20024;-85
2023/10/22 07:25:58;;;;;;;8.85;2.60;;;10.20;99.90;;;;;;5068416;28;20112;-86
2023/10/22 07:28:24;;;;;;;16.05;2.67;;;10.30;99.90;;;;;;5063825;28;20124;-86
2023/10/22 07:30:50;;;;;;;9.48;2.00;;;10.50;99.90;;;;;;5079410;28;20019;-86
2023/10/22 07:33:17;;;;;;;12.85;2.63;;;10.60;99.90;;;;;;5064746;28;20024;-86
2023/10/22 07:35:53;;;;;;;10.30;2.13;;;10.70;99.90;;;;;;5064158;28;20106;-85
2023/10/22 07:38:19;;;;;;;12.35;2.08;;;10.80;99.90;;;;;;5090620;28;20077;-86
2023/10/22 07:40:45;;;;;;;7.90;3.00;;;10.80;99.90;;;;;;5100670;28;20031;-86
2023/10/22 07:43:11;;;;;;;13.70;2.13;;;10.90;99.90;;;;;;5074751;28;20496;-86
2023/10/22 07:49:24;;;;;;;9.40;1.85;;;11.00;99.90;;;;;;5086527;28;20059;-86
2023/10/22 07:51:49;;;;;;;11.23;2.70;;;11.00;99.90;;;;;;5060485;28;20058;-85
2023/10/22 07:54:15;;;;;;;11.95;2.13;;;11.00;99.90;;;;;;5114495;28;20035;-85
2023/10/22 07:56:41;;;;;;;16.25;2.63;;;11.00;99.90;;;;;;5062304;28;20279;-85
2023/10/22 07:59:06;;;;;;;9.77;2.40;;;10.90;99.90;;;;;;5082473;28;20039;-86
2023/10/22 08:01:32;;;;;;;8.05;2.00;;;10.80;99.90;;;;;;5063660;28;20028;-86
2023/10/22 08:03:58;;;;;;;9.68;2.28;;;10.90;99.90;;;;;;5089323;28;20483;-85
2023/10/22 08:06:23;;;;;;;14.00;2.60;;;10.90;99.90;;;;;;5063692;28;20486;-85
2023/10/22 08:09:07;;;;;;;11.07;2.55;;;10.90;99.90;;;;;;5074627;28;20710;-86
2023/10/22 08:11:33;;;;;;;10.27;2.17;;;10.90;99.90;;;;;;5058395;28;20020;-86
2023/10/22 08:13:59;;;;;;;11.52;2.85;;;10.80;99.90;;;;;;5060688;28;20119;-85
2023/10/22 08:16:24;;;;;;;6.80;2.40;;;10.70;99.90;;;;;;5056505;28;20547;-85
2023/10/22 08:18:50;;;;;;;11.43;2.40;;;10.50;99.90;;;;;;5092531;28;20537;-86
2023/10/22 08:21:17;;;;;;;11.63;3.00;;;10.50;99.90;;;;;;5061468;28;20073;-86
2023/10/22 08:23:43;;;;;;;6.93;1.90;;;10.40;99.90;;;;;;5093673;28;20495;-85
2023/10/22 08:26:09;;;;;;;18.05;2.78;;;10.50;99.90;;;;;;5087099;28;20024;-85
2023/10/22 08:28:37;;;;;;;9.93;3.85;;;10.60;99.90;;;;;;5075852;28;20475;-85
2023/10/22 08:31:03;;;;;;;6.40;2.20;;;10.80;99.90;;;;;;5105385;28;20050;-86
2023/10/22 08:33:29;;;;;;;11.15;1.83;;;11.20;99.90;;;;;;5085636;28;20032;-86
2023/10/22 08:35:55;;;;;;;4.82;1.75;;;11.40;99.90;;;;;;5102749;28;20039;-85
2023/10/22 08:38:21;;;;;;;9.35;2.80;;;11.50;99.90;;;;;;5094442;28;20024;-86
2023/10/22 08:40:50;;;;;;;14.85;2.97;;;11.40;99.90;;;;;;5100266;28;20020;-86
2023/10/22 08:43:18;;;;;;;14.52;3.25;;;11.30;99.90;;;;;;5075198;28;20024;-86
2023/10/22 08:45:48;;;;;;;11.38;2.88;;;11.20;99.90;;;;;;5115500;27;20035;-86
2023/10/22 08:48:15;;;;;;;10.27;2.00;;;11.00;99.90;;;;;;5061785;28;20055;-86
2023/10/22 08:50:46;;;;;;;19.73;2.45;;;10.90;99.90;;;;;;5092539;28;20035;-86
2023/10/22 08:53:14;;;;;;;18.45;3.47;;;10.90;99.90;;;;;;5068827;28;20546;-85
2023/10/22 08:55:45;;;;;;;19.80;3.22;;;10.90;99.90;;;;;;5078325;28;20043;-86
2023/10/22 08:58:14;;;;;;;15.32;2.60;;;11.10;99.90;;;;;;5059919;28;20028;-86
2023/10/22 09:01:05;;;;;;;19.08;2.42;;;11.20;99.90;;;;;;5087838;28;20115;-86
2023/10/22 09:03:32;;;;;;;13.05;2.53;;;11.30;99.90;;;;;;5062584;28;20036;-85
2023/10/22 09:05:58;;;;;;;15.82;3.00;;;11.30;99.90;;;;;;5087210;28;20043;-86
2023/10/22 09:08:41;;;;;;;28.42;5.97;;;11.30;99.90;;;;;;5078031;28;20461;-85
2023/10/22 09:11:18;;;;;;;21.10;3.53;;;11.40;99.90;;;;;;5061780;28;20514;-87
2023/10/22 09:13:44;;;;;;;20.58;5.20;;;11.60;99.90;;;;;;5087385;28;20154;-87
2023/10/22 09:16:10;;;;;;;20.25;6.55;;;11.80;99.90;;;;;;5094662;28;20024;-87
2023/10/22 09:18:46;;;;;;;12.60;3.03;;;12.00;99.90;;;;;;5087974;28;20020;-86
2023/10/22 09:21:12;;;;;;;24.52;8.07;;;12.20;99.90;;;;;;5085333;28;20066;-87
2023/10/22 09:23:37;;;;;;;15.27;4.30;;;12.50;99.90;;;;;;5074692;28;20028;-86
2023/10/22 09:26:03;;;;;;;14.48;2.88;;;12.50;99.90;;;;;;5080715;28;20068;-84
2023/10/22 09:28:33;;;;;;;14.02;3.00;;;12.50;99.90;;;;;;5065250;28;20035;-85
2023/10/22 09:31:01;;;;;;;12.63;2.50;;;12.40;99.90;;;;;;5079413;28;20080;-85
2023/10/22 09:33:38;;;;;;;9.80;2.15;;;12.40;99.90;;;;;;5073112;28;20046;-85
2023/10/22 09:36:10;;;;;;;20.77;3.00;;;12.40;99.90;;;;;;5088567;28;20036;-86
2023/10/22 09:38:42;;;;;;;;;;;12.40;99.90;;;;;;5090983;28;20081;-85
2023/10/22 09:41:30;;;;;;;9.77;2.30;;;12.50;99.90;;;;;;5111982;27;19918;-86
2023/10/22 09:44:04;;;;;;;13.68;2.55;;;12.60;99.90;;;;;;5091030;28;20025;-86
2023/10/22 09:46:32;;;;;;;17.27;2.78;;;12.80;99.90;;;;;;5086162;28;20028;-86
2023/10/22 09:49:06;;;;;;;8.95;2.20;;;12.80;99.90;;;;;;5079364;28;20149;-85
2023/10/22 09:51:35;;;;;;;9.82;3.15;;;12.90;99.90;;;;;;5053496;28;20028;-86
2023/10/22 09:54:07;;;;;;;12.55;3.17;;;12.70;99.90;;;;;;5058615;28;20023;-86
2023/10/22 09:56:48;;;;;;;11.35;2.42;;;12.40;99.90;;;;;;5056561;28;20024;-86
2023/10/22 09:59:17;;;;;;;8.32;2.08;;;12.20;99.90;;;;;;5090378;28;20032;-86
2023/10/22 10:01:43;;;;;;;15.77;3.25;;;12.00;99.90;;;;;;5074194;28;20039;-86
2023/10/22 10:04:11;;;;;;;15.68;3.67;;;11.90;99.90;;;;;;5089857;28;20024;-86
2023/10/22 10:06:37;;;;;;;12.93;2.92;;;12.10;99.90;;;;;;5090309;28;20031;-86
2023/10/22 10:09:04;;;;;;;13.00;3.88;;;12.20;99.90;;;;;;5069362;28;20073;-86
2023/10/22 10:11:31;;;;;;;13.52;3.20;;;12.40;99.90;;;;;;5059697;28;20028;-86
2023/10/22 10:13:58;;;;;;;13.30;2.70;;;12.70;99.90;;;;;;5064711;28;20044;-86
2023/10/22 10:16:25;;;;;;;15.52;3.42;;;13.10;99.90;;;;;;5086825;28;20051;-86
2023/10/22 10:19:00;;;;;;;9.48;3.58;;;13.50;99.90;;;;;;5079945;28;20429;-86
2023/10/22 10:21:45;;;;;;;14.77;2.13;;;14.20;99.90;;;;;;5090389;28;20665;-86
2023/10/22 10:24:15;;;;;;;10.65;2.70;;;14.60;99.90;;;;;;5106720;28;20471;-86
2023/10/22 10:26:41;;;;;;;15.15;3.47;;;14.60;99.90;;;;;;5081511;28;20027;-85
2023/10/22 10:29:06;;;;;;;16.63;3.00;;;14.40;99.90;;;;;;5075329;28;20035;-86
2023/10/22 10:31:32;;;;;;;12.50;2.92;;;14.10;99.90;;;;;;5077850;28;20024;-87
2023/10/22 10:34:02;;;;;;;13.88;3.08;;;14.00;99.90;;;;;;5080710;28;20031;-86
2023/10/22 10:36:28;;;;;;;16.77;4.45;;;13.90;99.90;;;;;;5078250;28;20111;-86
2023/10/22 10:39:14;;;;;;;23.73;2.95;;;13.70;99.90;;;;;;5075974;28;20020;-86
2023/10/22 10:41:53;;;;;;;7.35;1.95;;;13.70;99.90;;;;;;5049515;28;20055;-85
2023/10/22 10:44:19;;;;;;;14.50;2.78;;;13.40;99.90;;;;;;5095584;28;20062;-85
2023/10/22 10:46:44;;;;;;;12.32;2.90;;;13.40;99.90;;;;;;5083299;28;20602;-86
2023/10/22 10:49:10;;;;;;;17.50;3.30;;;13.40;99.90;;;;;;5080281;28;20028;-86
2023/10/22 10:51:36;;;;;;;13.35;2.50;;;13.60;99.90;;;;;;5059096;28;20020;-86
2023/10/22 10:54:02;;;;;;;12.38;2.65;;;13.80;99.90;;;;;;5119360;27;20749;-86
2023/10/22 10:56:48;;;;;;;17.70;2.95;;;14.00;99.90;;;;;;5077288;28;20070;-86
2023/10/22 10:59:31;;;;;;;19.02;2.90;;;14.20;99.90;;;;;;5077724;28;20032;-86
2023/10/22 11:02:08;;;;;;;11.70;2.92;;;14.10;99.90;;;;;;5067453;28;20027;-85
2023/10/22 11:04:39;;;;;;;19.88;2.60;;;14.00;99.90;;;;;;5092651;28;20119;-85
2023/10/22 11:07:06;;;;;;;16.17;3.63;;;14.10;99.90;;;;;;5086669;28;20051;-85
2023/10/22 11:09:37;;;;;;;13.48;2.70;;;14.30;99.90;;;;;;5078814;28;20039;-86
2023/10/22 11:12:04;;;;;;;23.23;3.60;;;14.50;99.90;;;;;;5112287;28;20394;-86
2023/10/22 11:14:35;;;;;;;15.95;2.65;;;14.60;99.90;;;;;;5062431;28;20028;-86
2023/10/22 11:17:02;;;;;;;14.23;2.67;;;14.60;99.90;;;;;;5097448;28;20061;-86
2023/10/22 11:19:30;;;;;;;18.50;3.53;;;14.60;99.90;;;;;;5091522;28;20024;-86
2023/10/22 11:21:57;;;;;;;20.00;2.78;;;14.90;99.90;;;;;;5083826;28;20035;-86
2023/10/22 11:24:44;;;;;;;10.93;2.20;;;15.10;99.90;;;;;;5082325;28;20027;-87
2023/10/22 11:27:41;;;;;;;15.57;2.97;;;15.50;99.90;;;;;;5113519;28;20044;-86
2023/10/22 11:30:07;;;;;;;12.25;2.80;;;15.80;99.90;;;;;;5090666;28;20024;-86
2023/10/22 11:32:37;;;;;;;12.07;2.45;;;15.40;99.90;;;;;;5082044;28;20528;-86
2023/10/22 11:35:07;;;;;;;7.78;1.88;;;15.00;99.90;;;;;;5079930;28;20248;-86
2023/10/22 11:37:41;;;;;;;10.15;2.50;;;14.80;99.90;;;;;;5063801;28;20120;-86
2023/10/22 11:40:22;;;;;;;11.95;2.30;;;15.00;99.90;;;;;;5053563;28;20031;-86
2023/10/22 11:42:48;;;;;;;14.20;2.63;;;14.70;99.90;;;;;;5093563;28;20029;-86
2023/10/22 11:45:14;;;;;;;13.68;2.40;;;14.40;99.90;;;;;;5111056;28;20495;-86
2023/10/22 11:48:17;;;;;;;12.77;2.90;;;14.00;99.90;;;;;;5086695;28;20024;-85
2023/10/22 11:50:50;;;;;;;9.32;2.33;;;13.70;99.90;;;;;;5063015;28;20042;-86
2023/10/22 11:53:17;;;;;;;10.75;2.35;;;13.50;99.90;;;;;;5051187;28;20031;-86
2023/10/22 11:55:45;;;;;;;12.13;2.70;;;13.40;99.90;;;;;;5099128;28;20035;-86
2023/10/22 11:58:18;;;;;;;13.95;5.25;;;13.30;99.90;;;;;;5053968;28;20174;-85
2023/10/22 12:00:48;;;;;;;10.15;3.33;;;13.10;99.90;;;;;;5064712;28;20039;-86
2023/10/22 12:03:14;;;;;;;18.67;3.40;;;12.90;99.90;;;;;;5078130;28;20047;-86
2023/10/22 12:05:59;;;;;;;15.75;2.72;;;12.90;99.90;;;;;;5061779;28;20115;-86
2023/10/22 12:08:25;;;;;;;14.70;2.40;;;12.90;99.90;;;;;;5104665;28;20032;-86
2023/10/22 12:10:50;;;;;;;10.25;2.47;;;13.10;99.90;;;;;;5063250;28;20031;-85
2023/10/22 12:13:16;;;;;;;16.38;2.60;;;13.60;99.90;;;;;;5096483;28;20123;-85
2023/10/22 12:15:42;;;;;;;10.40;3.17;;;14.30;99.90;;;;;;5076778;28;20046;-86
2023/10/22 12:18:09;;;;;;;15.25;4.60;;;14.80;99.90;;;;;;5086405;28;20028;-87
2023/10/22 12:20:35;;;;;;;12.55;3.38;;;15.20;99.90;;;;;;5080091;28;20130;-86
2023/10/22 12:23:00;;;;;;;14.02;2.88;;;15.40;99.90;;;;;;5077750;28;20148;-85
2023/10/22 12:25:30;;;;;;;10.20;2.22;;;14.90;99.90;;;;;;5075500;28;20107;-86
2023/10/22 12:27:56;;;;;;;10.35;1.90;;;14.70;99.90;;;;;;5076889;28;20027;-86
2023/10/22 12:30:21;;;;;;;14.73;3.53;;;15.00;99.90;;;;;;5077233;28;20387;-86
2023/10/22 12:32:47;;;;;;;10.68;3.05;;;15.10;99.90;;;;;;5094849;28;20036;-85
2023/10/22 12:35:13;;;;;;;21.83;6.25;;;15.00;99.90;;;;;;5107323;27;20387;-85
2023/10/22 12:37:39;;;;;;;23.45;7.75;;;14.50;99.90;;;;;;5054677;28;20020;-86
2023/10/22 12:40:05;;;;;;;25.23;8.50;;;13.90;99.90;;;;;;5054345;28;20020;-86
2023/10/22 12:42:47;;;;;;;16.23;3.75;;;13.40;99.90;;;;;;5107600;27;20357;-86
2023/10/22 12:45:13;;;;;;;14.82;3.88;;;13.20;99.90;;;;;;5076631;28;20028;-86
2023/10/22 12:47:39;;;;;;;21.75;3.25;;;13.30;99.90;;;;;;5077199;28;20544;-85
2023/10/22 12:50:05;;;;;;;14.73;2.70;;;13.70;99.90;;;;;;5063046;28;20691;-86
2023/10/22 12:52:31;;;;;;;10.48;2.75;;;13.90;99.90;;;;;;5111121;28;20034;-86
2023/10/22 12:54:57;;;;;;;11.55;2.30;;;14.10;99.90;;;;;;5068667;28;20031;-86
2023/10/22 12:57:22;;;;;;;11.07;2.70;;;14.40;99.90;;;;;;5076429;28;20694;-86
2023/10/22 12:59:48;;;;;;;13.93;3.30;;;14.40;99.90;;;;;;5096713;28;20467;-85